Terminal Aerodrome Forecast
Issued by NWS

Home | Current Version | Previous Version | Text Only | Print | Product List | Glossary On
Versions: 1 2 3 4 5 6 7 8 9 10 11 12 13 14 15 16 17 18 19 20
360
FTUS44 KBMX 290520
TAFTCL
TAF
KTCL 290520Z 2906/3006 00000KT P6SM SKC
     FM291700 15007KT P6SM SCT250
     FM292000 20007KT P6SM BKN250
     FM300000 00000KT P6SM OVC250=

USA.gov is the U.S. government's official web portal to all federal, state and local government web resources and services.